createdAt,value
2018-04-29T00:02:25.403Z,94930
2018-04-29T00:07:53.585Z,94936
2018-04-29T00:13:21.748Z,94930
2018-04-29T00:18:50.118Z,94933
2018-04-29T00:24:18.281Z,94936
2018-04-29T00:29:46.529Z,94937
2018-04-29T00:35:14.688Z,94922
2018-04-29T00:40:43.480Z,94928
2018-04-29T00:46:11.665Z,94922
2018-04-29T00:51:57.611Z,94933
2018-04-29T00:57:25.761Z,94911
2018-04-29T01:02:54.677Z,94924
2018-04-29T01:08:22.835Z,94922
2018-04-29T01:13:51.739Z,94923
2018-04-29T01:19:19.871Z,94932
2018-04-29T01:24:48.030Z,94935
2018-04-29T01:30:16.177Z,94932
2018-04-29T01:35:44.333Z,94932
2018-04-29T01:41:12.489Z,94928
2018-04-29T01:46:40.637Z,94937
2018-04-29T01:52:08.799Z,94950
2018-04-29T01:57:37.742Z,94977
2018-04-29T02:03:06.667Z,94973
2018-04-29T02:08:34.799Z,94995
2018-04-29T02:14:03.726Z,94987
2018-04-29T02:19:31.883Z,95003
2018-04-29T02:25:00.029Z,95008
2018-04-29T02:30:28.193Z,95008
2018-04-29T02:35:57.111Z,95022
2018-04-29T02:41:25.263Z,95032
2018-04-29T02:46:53.398Z,95022
2018-04-29T02:52:21.557Z,95019
2018-04-29T02:57:49.684Z,95015
2018-04-29T03:03:17.832Z,95012
2018-04-29T03:08:46.967Z,95017
2018-04-29T03:14:15.876Z,95020
2018-04-29T03:19:44.016Z,95033
2018-04-29T03:25:12.191Z,95032
2018-04-29T03:30:41.286Z,95023
2018-04-29T03:36:10.176Z,95021
2018-04-29T03:41:38.320Z,95030
2018-04-29T03:47:06.465Z,95041
2018-04-29T03:52:37.355Z,95035
2018-04-29T03:58:23.328Z,95053
2018-04-29T04:04:04.365Z,95054
2018-04-29T04:09:32.499Z,95069
2018-04-29T04:15:01.616Z,95058
2018-04-29T04:20:29.793Z,95077
2018-04-29T04:25:59.661Z,95068
2018-04-29T04:31:28.593Z,95069
2018-04-29T04:36:56.740Z,95072
2018-04-29T04:42:24.893Z,95081
2018-04-29T04:47:53.062Z,95081
2018-04-29T04:53:21.978Z,95090
2018-04-29T04:58:50.871Z,95093
2018-04-29T05:04:19.568Z,95092
2018-04-29T05:09:48.488Z,95096
2018-04-29T05:15:17.398Z,95098
2018-04-29T05:20:45.543Z,95106
2018-04-29T05:26:13.671Z,95101
2018-04-29T05:31:42.701Z,95111
2018-04-29T05:37:10.993Z,95102
2018-04-29T05:42:39.154Z,95091
2018-04-29T05:48:08.075Z,95086
2018-04-29T05:53:36.225Z,95076
2018-04-29T05:59:04.371Z,95076
2018-04-29T06:04:32.555Z,95090
2018-04-29T06:10:01.509Z,95065
2018-04-29T06:15:29.704Z,95060
2018-04-29T06:20:58.617Z,95057
2018-04-29T06:26:27.945Z,95050
2018-04-29T06:31:56.095Z,95053
2018-04-29T06:37:24.250Z,95054
2018-04-29T06:42:52.393Z,95047
2018-04-29T06:48:20.528Z,95044
2018-04-29T06:53:48.678Z,95041
2018-04-29T06:59:16.905Z,95039
2018-04-29T07:04:45.869Z,95046
2018-04-29T07:10:14.029Z,95031
2018-04-29T07:15:43.120Z,95036
2018-04-29T07:21:12.111Z,95025
2018-04-29T07:26:40.979Z,95011
2018-04-29T07:32:09.909Z,94996
2018-04-29T07:37:39.321Z,94995
2018-04-29T07:43:11.068Z,95010
2018-04-29T07:48:39.198Z,95006
2018-04-29T07:54:08.262Z,95012
2018-04-29T07:59:38.448Z,94990
2018-04-29T08:05:06.678Z,94988
2018-04-29T08:10:34.829Z,94977
2018-04-29T08:16:03.142Z,94984
2018-04-29T08:21:33.366Z,94968
2018-04-29T08:27:01.585Z,94974
2018-04-29T08:32:30.737Z,94971
2018-04-29T08:37:59.964Z,94966
2018-04-29T08:43:30.157Z,94960
2018-04-29T08:49:00.345Z,94956
2018-04-29T08:54:28.515Z,94937
2018-04-29T08:59:56.672Z,94945
2018-04-29T09:05:24.844Z,94951
2018-04-29T09:10:53.793Z,94949
2018-04-29T09:16:21.977Z,94948
2018-04-29T09:21:50.161Z,94932
2018-04-29T09:27:18.306Z,94930
2018-04-29T09:32:46.484Z,94913
2018-04-29T09:38:14.612Z,94919
2018-04-29T09:43:42.864Z,94913
2018-04-29T09:49:10.997Z,94908
2018-04-29T09:54:39.169Z,94907
2018-04-29T10:00:07.421Z,94901
2018-04-29T10:05:35.589Z,94909
2018-04-29T10:11:06.518Z,94904
2018-04-29T10:16:34.696Z,94906
2018-04-29T10:22:03.677Z,94896
2018-04-29T10:27:31.863Z,94892
2018-04-29T10:33:00.029Z,94883
2018-04-29T10:38:30.128Z,94878
2018-04-29T10:44:02.528Z,94866
2018-04-29T10:49:30.706Z,94863
2018-04-29T10:54:58.886Z,94855
2018-04-29T11:00:27.796Z,94842
2018-04-29T11:05:55.927Z,94832
2018-04-29T11:11:24.089Z,94823
2018-04-29T11:16:52.350Z,94812
2018-04-29T11:22:20.518Z,94814
2018-04-29T11:27:53.942Z,94804
2018-04-29T11:33:22.079Z,94805
2018-04-29T11:38:50.234Z,94790
2018-04-29T11:44:18.398Z,94789
2018-04-29T11:49:46.541Z,94778
2018-04-29T11:55:14.734Z,94773
2018-04-29T12:00:42.884Z,94761
2018-04-29T12:06:11.061Z,94759
2018-04-29T12:11:39.217Z,94758
2018-04-29T12:17:08.132Z,94737
2018-04-29T12:22:37.310Z,94740
2018-04-29T12:28:10.943Z,94722
2018-04-29T12:33:39.958Z,94720
2018-04-29T12:39:10.525Z,94718
2018-04-29T12:44:38.671Z,94710
2018-04-29T12:50:06.899Z,94698
2018-04-29T12:55:35.109Z,94694
2018-04-29T13:01:04.383Z,94681
2018-04-29T13:06:32.605Z,94669
2018-04-29T13:12:00.809Z,94659
2018-04-29T13:17:28.980Z,94652
2018-04-29T13:22:57.132Z,94644
2018-04-29T13:28:26.027Z,94637
2018-04-29T13:33:54.165Z,94630
2018-04-29T13:39:22.309Z,94616
2018-04-29T13:44:51.213Z,94605
2018-04-29T13:50:19.421Z,94600
2018-04-29T13:55:47.573Z,94588
2018-04-29T14:01:15.730Z,94564
2018-04-29T14:06:43.875Z,94564
2018-04-29T14:12:12.050Z,94539
2018-04-29T14:17:40.965Z,94539
2018-04-29T14:23:09.125Z,94530
2018-04-29T14:28:37.273Z,94517
2018-04-29T14:34:05.527Z,94512
2018-04-29T14:39:37.163Z,94490
2018-04-29T14:45:05.447Z,94487
2018-04-29T14:50:35.678Z,94413
2018-04-29T14:56:03.910Z,94482
2018-04-29T15:01:32.081Z,94482
2018-04-29T15:07:01.035Z,94478
2018-04-29T15:12:29.226Z,94485
2018-04-29T15:17:57.379Z,94477
2018-04-29T15:23:26.566Z,94467
2018-04-29T15:28:54.755Z,94461
2018-04-29T15:34:29.689Z,94458
2018-04-29T15:39:57.846Z,94444
2018-04-29T15:45:26.150Z,94442
2018-04-29T15:50:54.696Z,94434
2018-04-29T15:56:22.819Z,94435
2018-04-29T16:01:50.963Z,94420
2018-04-29T16:07:19.126Z,94421
2018-04-29T16:12:48.158Z,94407
2018-04-29T16:18:16.296Z,94409
2018-04-29T16:23:45.220Z,94394
2018-04-29T16:29:14.209Z,94399
2018-04-29T16:34:45.358Z,94392
2018-04-29T16:40:14.266Z,94398
2018-04-29T16:45:42.414Z,94392
2018-04-29T16:51:11.396Z,94391
2018-04-29T16:56:39.570Z,94386
2018-04-29T17:02:08.596Z,94379
2018-04-29T17:07:36.751Z,94374
2018-04-29T17:13:05.860Z,94381
2018-04-29T17:18:34.011Z,94365
2018-04-29T17:24:02.181Z,94375
2018-04-29T17:29:30.351Z,94367
2018-04-29T17:34:58.628Z,94356
2018-04-29T17:40:27.555Z,94355
2018-04-29T17:45:55.700Z,94352
2018-04-29T17:51:24.013Z,94350
2018-04-29T17:56:56.152Z,94342
2018-04-29T18:02:25.076Z,94339
2018-04-29T18:07:53.384Z,94355
2018-04-29T18:13:21.528Z,94350
2018-04-29T18:18:50.468Z,94346
2018-04-29T18:24:19.423Z,94345
2018-04-29T18:29:47.573Z,94328
2018-04-29T18:35:15.827Z,94338
2018-04-29T18:40:44.652Z,94337
2018-04-29T18:46:14.742Z,94337
2018-04-29T18:51:43.723Z,94346
2018-04-29T18:57:12.936Z,94345
2018-04-29T19:02:42.071Z,94346
2018-04-29T19:08:11.340Z,94340
2018-04-29T19:13:40.460Z,94349
2018-04-29T19:19:08.707Z,94348
2018-04-29T19:24:49.644Z,94344
2018-04-29T19:30:18.609Z,94344
2018-04-29T19:35:54.411Z,94337
2018-04-29T19:41:22.577Z,94339
2018-04-29T19:46:51.710Z,94338
2018-04-29T19:52:20.645Z,94343
2018-04-29T19:57:53.258Z,94342
2018-04-29T20:03:27.431Z,94350
2018-04-29T20:08:56.352Z,94338
2018-04-29T20:14:24.507Z,94344
2018-04-29T20:20:00.418Z,94327
2018-04-29T20:25:28.582Z,94325
2018-04-29T20:30:56.719Z,94308
2018-04-29T20:36:25.623Z,94309
2018-04-29T20:41:53.816Z,94300
2018-04-29T20:47:21.996Z,94284
2018-04-29T20:52:51.887Z,94267
2018-04-29T20:58:20.821Z,94262
2018-04-29T21:03:49.008Z,94241
2018-04-29T21:09:18.559Z,94242
2018-04-29T21:14:47.711Z,94249
2018-04-29T21:20:16.603Z,94241
2018-04-29T21:25:44.775Z,94242
2018-04-29T21:31:13.783Z,94229
2018-04-29T21:36:42.003Z,94234
2018-04-29T21:42:10.144Z,94231
2018-04-29T21:47:38.328Z,94232
2018-04-29T21:53:06.489Z,94220
2018-04-29T21:58:35.405Z,94220
2018-04-29T22:04:03.556Z,94208
2018-04-29T22:09:32.479Z,94206
2018-04-29T22:15:00.647Z,94203
2018-04-29T22:20:28.809Z,94204
2018-04-29T22:25:56.968Z,94192
2018-04-29T22:31:25.122Z,94187
2018-04-29T22:36:53.282Z,94182
2018-04-29T22:42:21.420Z,94167
2018-04-29T22:47:49.573Z,94164
2018-04-29T22:53:17.757Z,94160
2018-04-29T22:58:46.668Z,94163
2018-04-29T23:04:15.723Z,94166
2018-04-29T23:09:44.619Z,94152
2018-04-29T23:15:12.743Z,94151
2018-04-29T23:20:40.879Z,94145
2018-04-29T23:26:09.035Z,94150
2018-04-29T23:31:38.151Z,94136
2018-04-29T23:37:06.363Z,94128
2018-04-29T23:42:34.493Z,94116
2018-04-29T23:48:02.640Z,94109
2018-04-29T23:53:31.561Z,94109
2018-04-29T23:59:00.477Z,94103
